Time;durP1;ratioP1;P1;durP2;ratioP2;P2;SDS_P1;SDS_P2;PMS_P1;PMS_P2;Temp;Humidity;BMP_temperature;BMP_pressure;BME280_temperature;BME280_humidity;BME280_pressure;Samples;Min_cycle;Max_cycle;Signal;HPM_P1;HPM_P2
2022/12/29 00:00:23;;;;;;;6.30;2.15;;;;;;;;;;5088359;28;20108;-79
2022/12/29 00:02:50;;;;;;;6.18;2.30;;;;;;;;;;5071490;28;20053;-79
2022/12/29 00:05:18;;;;;;;4.55;2.15;;;;;;;;;;5071534;28;20044;-79
2022/12/29 00:07:46;;;;;;;4.07;2.03;;;;;;;;;;5086956;28;20118;-79
2022/12/29 00:10:12;;;;;;;6.75;2.05;;;;;;;;;;5055309;28;20053;-79
2022/12/29 00:15:37;;;;;;;6.10;2.03;;;;;;;;;;5088306;28;20044;-78
2022/12/29 00:18:12;;;;;;;4.72;2.03;;;;;;;;;;5069566;28;20052;-78
2022/12/29 00:44:04;;;;;;;7.07;1.73;;;;;;;;;;5092080;28;20048;-79
2022/12/29 00:45:39;;;;;;;5.82;1.70;;;;;;;;;;5090671;28;20908;-79
2022/12/29 00:48:05;;;;;;;4.57;1.60;;;;;;;;;;5090457;28;20056;-79
2022/12/29 00:50:33;;;;;;;3.83;1.52;;;;;;;;;;5091823;28;20055;-79
2022/12/29 00:53:00;;;;;;;5.13;1.73;;;;;;;;;;5074105;28;20052;-78
2022/12/29 00:55:27;;;;;;;4.43;1.63;;;;;;;;;;5092610;28;20133;-79
2022/12/29 00:57:55;;;;;;;3.83;1.67;;;;;;;;;;5091176;28;20059;-78
2022/12/29 01:00:21;;;;;;;4.35;1.73;;;;;;;;;;5083493;28;20110;-79
2022/12/29 01:02:49;;;;;;;4.70;2.15;;;;;;;;;;5089986;28;20049;-80
2022/12/29 01:05:17;;;;;;;4.68;1.67;;;;;;;;;;5091807;28;20108;-79
2022/12/29 01:07:46;;;;;;;3.78;1.35;;;;;;;;;;5090696;28;20634;-80
2022/12/29 01:10:18;;;;;;;5.30;1.70;;;;;;;;;;5090870;28;20064;-78
2022/12/29 01:12:47;;;;;;;3.88;1.40;;;;;;;;;;5091629;28;20106;-80
2022/12/29 01:15:14;;;;;;;3.67;1.30;;;;;;;;;;5090874;28;20060;-80
2022/12/29 01:17:50;;;;;;;5.15;1.42;;;;;;;;;;5077173;28;20049;-79
2022/12/29 01:20:21;;;;;;;4.65;1.38;;;;;;;;;;5091452;28;20063;-79
2022/12/29 01:22:51;;;;;;;3.60;1.50;;;;;;;;;;5091814;28;20049;-79
2022/12/29 01:25:18;;;;;;;5.72;1.35;;;;;;;;;;5092499;28;20044;-80
2022/12/29 01:27:48;;;;;;;3.00;1.30;;;;;;;;;;5091940;28;20052;-80
2022/12/29 01:30:17;;;;;;;4.47;1.40;;;;;;;;;;5092570;28;20052;-79
2022/12/29 01:32:47;;;;;;;5.50;1.40;;;;;;;;;;5074785;28;20142;-80
2022/12/29 01:35:15;;;;;;;4.03;1.42;;;;;;;;;;5088876;28;20110;-80
2022/12/29 01:37:45;;;;;;;3.42;1.40;;;;;;;;;;5089643;28;20055;-80
2022/12/29 01:40:14;;;;;;;9.48;1.75;;;;;;;;;;5090210;28;20130;-80
2022/12/29 01:42:45;;;;;;;3.95;1.30;;;;;;;;;;5074346;28;20056;-80
2022/12/29 01:45:14;;;;;;;2.93;1.20;;;;;;;;;;5075412;28;20056;-80
2022/12/29 01:47:49;;;;;;;6.17;1.67;;;;;;;;;;5090847;28;20310;-80
2022/12/29 01:50:18;;;;;;;3.83;1.60;;;;;;;;;;5088664;28;20078;-81
2022/12/29 01:52:54;;;;;;;3.55;1.50;;;;;;;;;;5089296;28;20051;-80
2022/12/29 01:55:22;;;;;;;3.90;1.55;;;;;;;;;;5073755;28;20112;-80
2022/12/29 01:57:53;;;;;;;4.38;1.60;;;;;;;;;;5091478;28;20057;-79
2022/12/29 02:00:25;;;;;;;3.53;1.50;;;;;;;;;;5089908;28;20519;-79
2022/12/29 02:02:54;;;;;;;3.28;1.52;;;;;;;;;;5088766;28;20137;-79
2022/12/29 02:05:38;;;;;;;3.95;1.55;;;;;;;;;;5072453;28;20064;-80
2022/12/29 02:08:05;;;;;;;3.40;1.40;;;;;;;;;;5072576;28;20144;-79
2022/12/29 02:10:32;;;;;;;3.63;1.73;;;;;;;;;;5090388;28;20045;-79
2022/12/29 02:12:59;;;;;;;6.18;1.80;;;;;;;;;;5080305;28;20179;-80
2022/12/29 02:15:40;;;;;;;4.55;1.60;;;;;;;;;;5092121;28;20114;-80
2022/12/29 02:18:08;;;;;;;3.55;1.58;;;;;;;;;;5091529;28;20049;-79
2022/12/29 02:20:35;;;;;;;3.88;1.63;;;;;;;;;;5086145;28;20977;-79
2022/12/29 02:23:20;;;;;;;3.42;1.52;;;;;;;;;;5091324;28;20049;-79
2022/12/29 02:25:50;;;;;;;5.78;1.98;;;;;;;;;;5087824;28;20048;-79
2022/12/29 02:28:26;;;;;;;5.07;1.50;;;;;;;;;;5083470;28;20071;-80
2022/12/29 02:30:58;;;;;;;4.07;1.45;;;;;;;;;;5089933;28;20052;-80
2022/12/29 02:33:25;;;;;;;3.78;1.25;;;;;;;;;;5090646;28;20048;-79
2022/12/29 02:36:15;;;;;;;3.67;1.05;;;;;;;;;;5090243;28;20930;-78
2022/12/29 02:38:50;;;;;;;3.88;1.10;;;;;;;;;;5070723;28;20059;-79
2022/12/29 02:41:32;;;;;;;2.42;0.88;;;;;;;;;;5086876;28;20055;-78
2022/12/29 02:44:03;;;;;;;4.15;1.17;;;;;;;;;;5069782;28;20057;-79
2022/12/29 02:46:35;;;;;;;3.85;0.70;;;;;;;;;;5070141;28;20493;-79
2022/12/29 02:49:11;;;;;;;2.17;0.60;;;;;;;;;;5082210;28;20594;-79
2022/12/29 02:51:57;;;;;;;2.35;0.70;;;;;;;;;;5087386;28;20503;-78
2022/12/29 02:54:42;;;;;;;3.97;0.80;;;;;;;;;;5070517;28;20594;-79
2022/12/29 02:57:10;;;;;;;3.72;0.80;;;;;;;;;;5091019;28;20052;-79
2022/12/29 02:59:37;;;;;;;2.05;0.60;;;;;;;;;;5081435;28;20060;-78
2022/12/29 03:02:20;;;;;;;4.50;0.85;;;;;;;;;;5087520;28;20112;-80
2022/12/29 03:04:59;;;;;;;1.95;0.80;;;;;;;;;;5072377;28;20082;-79
2022/12/29 03:07:37;;;;;;;4.90;0.80;;;;;;;;;;5088392;28;20159;-79
2022/12/29 03:10:03;;;;;;;3.65;1.00;;;;;;;;;;5089953;28;20423;-79
2022/12/29 03:18:23;;;;;;;4.00;1.20;;;;;;;;;;5070359;28;20053;-78
2022/12/29 03:21:00;;;;;;;4.57;1.10;;;;;;;;;;5076023;28;20059;-79
2022/12/29 03:23:32;;;;;;;4.40;1.35;;;;;;;;;;5069805;28;20534;-79
2022/12/29 03:26:02;;;;;;;4.80;0.90;;;;;;;;;;5068809;28;20508;-79
2022/12/29 03:28:36;;;;;;;4.00;1.10;;;;;;;;;;5072556;28;20412;-79
2022/12/29 03:31:07;;;;;;;4.80;1.10;;;;;;;;;;5087204;28;20503;-80
2022/12/29 03:33:37;;;;;;;4.28;1.13;;;;;;;;;;5070317;28;20064;-79
2022/12/29 03:36:26;;;;;;;3.25;1.00;;;;;;;;;;5073980;28;20056;-79
2022/12/29 03:39:05;;;;;;;4.20;1.20;;;;;;;;;;5089817;28;20074;-80
2022/12/29 03:41:33;;;;;;;3.75;1.10;;;;;;;;;;5087420;28;20122;-80
2022/12/29 03:44:00;;;;;;;4.55;1.50;;;;;;;;;;5087646;28;20060;-80
2022/12/29 03:46:27;;;;;;;6.55;1.17;;;;;;;;;;5088509;28;20137;-80
2022/12/29 03:48:56;;;;;;;3.83;1.20;;;;;;;;;;5089056;28;20056;-79
2022/12/29 03:51:27;;;;;;;2.92;1.00;;;;;;;;;;5087420;28;20078;-79
2022/12/29 03:53:54;;;;;;;6.85;1.10;;;;;;;;;;5087806;28;20534;-79
2022/12/29 03:56:21;;;;;;;4.47;1.00;;;;;;;;;;5088790;28;20048;-78
2022/12/29 03:58:50;;;;;;;3.97;1.02;;;;;;;;;;5087921;28;20088;-79
2022/12/29 04:01:19;;;;;;;6.45;1.33;;;;;;;;;;5087022;28;20524;-79
2022/12/29 04:03:46;;;;;;;4.10;1.10;;;;;;;;;;5086682;28;20054;-79
2022/12/29 04:06:16;;;;;;;4.22;1.10;;;;;;;;;;5068839;28;20056;-78
2022/12/29 04:08:44;;;;;;;9.35;1.40;;;;;;;;;;5068328;28;20057;-78
2022/12/29 04:11:12;;;;;;;6.72;1.20;;;;;;;;;;5086711;28;20048;-79
2022/12/29 04:13:40;;;;;;;5.15;1.30;;;;;;;;;;5087389;28;20057;-80
2022/12/29 04:16:08;;;;;;;4.40;1.30;;;;;;;;;;5089326;28;20126;-79
2022/12/29 04:18:35;;;;;;;3.17;1.10;;;;;;;;;;5085406;28;20056;-79
2022/12/29 04:21:05;;;;;;;4.90;1.15;;;;;;;;;;5087781;28;20057;-79
2022/12/29 04:23:36;;;;;;;6.53;1.23;;;;;;;;;;5070504;28;20041;-79
2022/12/29 04:26:06;;;;;;;3.65;1.00;;;;;;;;;;5088769;28;20515;-79
2022/12/29 04:28:34;;;;;;;6.53;1.00;;;;;;;;;;5071193;28;20053;-80
2022/12/29 04:31:07;;;;;;;4.15;1.05;;;;;;;;;;5082631;28;20132;-80
2022/12/29 04:33:35;;;;;;;8.05;1.48;;;;;;;;;;5087473;28;20210;-80
2022/12/29 04:36:06;;;;;;;4.68;0.90;;;;;;;;;;5090127;28;20139;-79
2022/12/29 04:38:41;;;;;;;7.15;1.15;;;;;;;;;;5074015;28;20589;-79
2022/12/29 04:41:10;;;;;;;4.10;0.80;;;;;;;;;;5080040;28;20537;-79
2022/12/29 04:43:36;;;;;;;6.47;1.00;;;;;;;;;;5088638;28;20130;-79
2022/12/29 04:46:05;;;;;;;6.18;1.25;;;;;;;;;;5091324;28;20088;-80
2022/12/29 04:48:34;;;;;;;8.10;1.27;;;;;;;;;;5090699;28;20055;-79
2022/12/29 04:51:02;;;;;;;5.60;1.45;;;;;;;;;;5089695;28;20496;-80
2022/12/29 04:53:33;;;;;;;6.80;1.17;;;;;;;;;;5089477;28;20056;-79
2022/12/29 04:56:01;;;;;;;8.35;1.55;;;;;;;;;;5072425;28;20057;-79
2022/12/29 04:58:29;;;;;;;9.00;1.00;;;;;;;;;;5074654;28;20081;-79
2022/12/29 05:00:58;;;;;;;5.68;1.42;;;;;;;;;;5088444;28;20100;-79
2022/12/29 05:03:25;;;;;;;11.63;1.27;;;;;;;;;;5088967;28;20053;-80
2022/12/29 05:06:16;;;;;;;8.07;1.15;;;;;;;;;;5088827;28;20060;-80
2022/12/29 05:08:45;;;;;;;6.82;1.20;;;;;;;;;;5070404;28;20092;-79
2022/12/29 05:11:14;;;;;;;5.95;1.00;;;;;;;;;;5086614;28;20535;-79
2022/12/29 05:13:45;;;;;;;5.40;0.98;;;;;;;;;;5069781;28;20087;-80
2022/12/29 05:16:13;;;;;;;10.90;1.40;;;;;;;;;;5055877;28;20110;-79
2022/12/29 05:18:39;;;;;;;8.20;1.20;;;;;;;;;;5072233;28;20128;-79
2022/12/29 05:21:06;;;;;;;9.27;1.00;;;;;;;;;;5077622;28;20075;-79
2022/12/29 05:23:33;;;;;;;5.30;1.00;;;;;;;;;;5088983;28;20512;-79
2022/12/29 05:26:00;;;;;;;5.70;1.00;;;;;;;;;;5089354;28;20057;-79
2022/12/29 05:28:27;;;;;;;10.63;1.50;;;;;;;;;;5092025;28;20060;-78
2022/12/29 05:30:54;;;;;;;6.82;1.08;;;;;;;;;;5091541;28;20049;-78
2022/12/29 05:33:21;;;;;;;6.57;1.00;;;;;;;;;;5091253;28;20067;-79
2022/12/29 05:35:48;;;;;;;8.13;1.00;;;;;;;;;;5091429;28;20045;-79
2022/12/29 05:38:16;;;;;;;9.60;1.63;;;;;;;;;;5091378;28;20102;-79
2022/12/29 05:40:44;;;;;;;6.85;1.10;;;;;;;;;;5088144;28;20180;-79
2022/12/29 05:43:11;;;;;;;14.57;1.08;;;;;;;;;;5090297;28;20059;-79
2022/12/29 05:45:39;;;;;;;7.38;1.00;;;;;;;;;;5074209;28;20872;-80
2022/12/29 05:48:06;;;;;;;10.90;1.23;;;;;;;;;;5090047;28;21210;-79
2022/12/29 05:50:33;;;;;;;4.65;0.95;;;;;;;;;;5071071;28;20037;-78
2022/12/29 05:53:01;;;;;;;11.32;1.27;;;;;;;;;;5085267;28;20057;-79
2022/12/29 05:55:29;;;;;;;5.65;1.20;;;;;;;;;;5070486;28;20041;-80
2022/12/29 05:57:56;;;;;;;7.20;1.35;;;;;;;;;;5088306;28;20075;-79
2022/12/29 06:00:24;;;;;;;6.07;1.13;;;;;;;;;;5090161;28;20060;-79
2022/12/29 06:02:51;;;;;;;6.60;1.08;;;;;;;;;;5091920;28;20543;-80
2022/12/29 06:05:18;;;;;;;15.25;1.60;;;;;;;;;;5090431;28;20167;-80
2022/12/29 06:07:45;;;;;;;7.28;1.20;;;;;;;;;;5072589;28;20148;-79
2022/12/29 06:10:12;;;;;;;8.70;1.27;;;;;;;;;;5091091;28;20033;-78
2022/12/29 06:12:39;;;;;;;11.75;1.55;;;;;;;;;;5088879;28;20048;-80
2022/12/29 06:15:06;;;;;;;12.73;1.27;;;;;;;;;;5093029;28;20095;-80
2022/12/29 06:17:34;;;;;;;7.65;1.33;;;;;;;;;;5074052;28;20064;-78
2022/12/29 06:20:01;;;;;;;12.13;1.60;;;;;;;;;;5092077;28;20060;-79
2022/12/29 06:22:28;;;;;;;7.25;1.17;;;;;;;;;;5088010;28;20045;-79
2022/12/29 06:24:54;;;;;;;6.90;1.20;;;;;;;;;;5090959;28;20570;-79
2022/12/29 06:27:31;;;;;;;6.07;1.85;;;;;;;;;;5089681;28;20106;-78
2022/12/29 06:29:57;;;;;;;12.57;1.40;;;;;;;;;;5091041;28;20135;-78
2022/12/29 06:32:24;;;;;;;8.73;1.20;;;;;;;;;;5090361;28;20063;-79
2022/12/29 06:34:51;;;;;;;10.63;1.50;;;;;;;;;;5091720;28;20098;-80
2022/12/29 06:37:18;;;;;;;8.45;1.65;;;;;;;;;;5074122;28;20853;-79
2022/12/29 06:39:49;;;;;;;10.45;1.27;;;;;;;;;;5091007;28;20052;-80
2022/12/29 06:42:17;;;;;;;6.18;1.42;;;;;;;;;;5091860;28;20028;-80
2022/12/29 06:44:44;;;;;;;7.63;1.35;;;;;;;;;;5089932;28;20139;-79
2022/12/29 06:47:10;;;;;;;13.20;1.38;;;;;;;;;;5092143;28;20584;-79
2022/12/29 06:49:37;;;;;;;6.43;1.15;;;;;;;;;;5092052;28;20527;-79
2022/12/29 06:52:04;;;;;;;7.78;1.60;;;;;;;;;;5084361;28;20049;-80
2022/12/29 06:54:38;;;;;;;7.00;1.35;;;;;;;;;;5071270;28;20067;-79
2022/12/29 06:57:04;;;;;;;7.47;1.20;;;;;;;;;;5064605;28;20499;-80
2022/12/29 06:59:32;;;;;;;7.38;1.25;;;;;;;;;;5089201;28;20064;-79
2022/12/29 07:02:01;;;;;;;12.05;1.08;;;;;;;;;;5091189;28;20049;-80
2022/12/29 07:04:29;;;;;;;7.88;1.05;;;;;;;;;;5091150;28;20056;-80
2022/12/29 07:06:56;;;;;;;5.95;1.20;;;;;;;;;;5089725;28;20056;-79
2022/12/29 07:09:24;;;;;;;5.32;1.33;;;;;;;;;;5073706;28;20058;-79
2022/12/29 07:11:51;;;;;;;8.48;1.00;;;;;;;;;;5088124;28;20076;-79
2022/12/29 07:14:17;;;;;;;7.78;1.00;;;;;;;;;;5091860;28;20537;-79
2022/12/29 07:16:44;;;;;;;8.88;1.63;;;;;;;;;;5091483;28;20055;-79
2022/12/29 07:19:10;;;;;;;9.10;1.17;;;;;;;;;;5073162;28;20056;-81
2022/12/29 07:21:37;;;;;;;11.13;1.70;;;;;;;;;;5089700;28;20064;-80
2022/12/29 07:24:03;;;;;;;8.65;1.38;;;;;;;;;;5088573;28;20103;-80
2022/12/29 07:26:31;;;;;;;6.88;1.42;;;;;;;;;;5089030;28;20087;-80
2022/12/29 07:29:02;;;;;;;6.90;1.42;;;;;;;;;;5089154;28;20039;-79
2022/12/29 07:31:29;;;;;;;9.63;1.50;;;;;;;;;;5089902;28;20041;-79
2022/12/29 07:33:55;;;;;;;7.82;1.33;;;;;;;;;;5091430;28;21369;-81
2022/12/29 07:36:22;;;;;;;10.68;1.67;;;;;;;;;;5090077;28;20053;-79
2022/12/29 07:38:48;;;;;;;9.15;1.88;;;;;;;;;;5087951;28;20060;-81
2022/12/29 07:41:18;;;;;;;10.05;1.67;;;;;;;;;;5072263;28;20072;-79
2022/12/29 07:43:46;;;;;;;9.57;1.50;;;;;;;;;;5069534;28;20052;-80
2022/12/29 07:46:12;;;;;;;6.82;1.27;;;;;;;;;;5086994;28;20051;-81
2022/12/29 07:48:59;;;;;;;7.07;1.58;;;;;;;;;;5084751;28;20751;-80
2022/12/29 07:51:25;;;;;;;7.63;1.10;;;;;;;;;;5090363;28;20053;-80
2022/12/29 07:53:52;;;;;;;7.15;1.60;;;;;;;;;;5091513;28;20127;-80
2022/12/29 07:56:18;;;;;;;9.55;1.50;;;;;;;;;;5071550;28;20067;-80
2022/12/29 07:58:44;;;;;;;11.18;1.83;;;;;;;;;;5089685;28;20059;-79
2022/12/29 08:01:11;;;;;;;11.32;1.60;;;;;;;;;;5085222;28;20089;-80
2022/12/29 08:03:37;;;;;;;9.10;1.83;;;;;;;;;;5088503;28;20076;-80
2022/12/29 08:06:04;;;;;;;12.70;2.30;;;;;;;;;;5083187;28;20102;-80
2022/12/29 08:08:30;;;;;;;10.40;1.63;;;;;;;;;;5069146;28;20052;-79
2022/12/29 08:10:57;;;;;;;12.38;1.75;;;;;;;;;;5086428;28;20534;-79
2022/12/29 08:13:23;;;;;;;9.48;1.40;;;;;;;;;;5087391;28;20052;-80
2022/12/29 08:15:49;;;;;;;12.25;1.60;;;;;;;;;;5084656;28;20051;-80
2022/12/29 08:18:16;;;;;;;9.88;1.85;;;;;;;;;;5088874;28;20044;-80
2022/12/29 08:20:42;;;;;;;9.55;1.50;;;;;;;;;;5090165;28;20135;-81
2022/12/29 08:23:08;;;;;;;9.57;1.75;;;;;;;;;;5086837;28;20048;-81
2022/12/29 08:25:35;;;;;;;8.93;1.13;;;;;;;;;;5089938;28;20056;-81
2022/12/29 08:28:01;;;;;;;8.38;1.20;;;;;;;;;;5087435;28;20048;-79
2022/12/29 08:30:28;;;;;;;8.15;1.33;;;;;;;;;;5085315;28;20044;-80
2022/12/29 08:32:57;;;;;;;13.65;1.50;;;;;;;;;;5083122;28;20088;-79
2022/12/29 08:35:23;;;;;;;10.15;1.45;;;;;;;;;;5083341;28;20186;-80
2022/12/29 08:37:49;;;;;;;8.20;1.20;;;;;;;;;;5087559;28;20052;-79
2022/12/29 08:40:16;;;;;;;10.15;1.45;;;;;;;;;;5083393;28;20092;-80
2022/12/29 08:42:43;;;;;;;14.55;1.60;;;;;;;;;;5089553;28;20135;-79
2022/12/29 08:45:09;;;;;;;12.63;1.42;;;;;;;;;;5089129;28;20845;-80
2022/12/29 08:47:36;;;;;;;9.32;1.60;;;;;;;;;;5087244;28;20049;-80
2022/12/29 08:50:02;;;;;;;9.65;1.20;;;;;;;;;;5093433;28;20048;-81
2022/12/29 08:52:28;;;;;;;10.35;3.00;;;;;;;;;;5095714;28;20052;-80
2022/12/29 08:54:55;;;;;;;9.32;1.80;;;;;;;;;;5092819;28;20064;-80
2022/12/29 08:57:21;;;;;;;10.60;1.92;;;;;;;;;;5088905;28;20585;-80
2022/12/29 08:59:48;;;;;;;8.63;1.50;;;;;;;;;;5074375;28;20087;-80
2022/12/29 09:02:15;;;;;;;10.05;2.28;;;;;;;;;;5080303;28;20107;-81
2022/12/29 09:04:49;;;;;;;6.05;1.60;;;;;;;;;;5096219;28;20087;-80
2022/12/29 09:07:15;;;;;;;9.80;1.75;;;;;;;;;;5092758;28;20065;-80
2022/12/29 09:09:42;;;;;;;14.07;3.30;;;;;;;;;;5075285;28;20134;-80
2022/12/29 09:12:08;;;;;;;7.25;1.42;;;;;;;;;;5075331;28;20052;-80
2022/12/29 09:14:34;;;;;;;7.63;1.27;;;;;;;;;;5078410;28;20836;-81
2022/12/29 09:19:50;;;;;;;11.50;1.20;;;;;;;;;;5072480;28;20049;-80
2022/12/29 09:22:17;;;;;;;13.55;1.70;;;;;;;;;;5057815;28;20081;-80
2022/12/29 09:24:43;;;;;;;5.70;1.40;;;;;;;;;;5078842;28;20053;-80
2022/12/29 09:27:09;;;;;;;9.70;2.13;;;;;;;;;;5090063;28;20048;-81
2022/12/29 09:29:41;;;;;;;8.85;1.70;;;;;;;;;;5086474;28;20045;-80
2022/12/29 09:32:07;;;;;;;6.95;1.23;;;;;;;;;;5092165;28;20056;-80
2022/12/29 09:34:37;;;;;;;10.65;1.75;;;;;;;;;;5092485;28;20061;-79
2022/12/29 09:37:10;;;;;;;8.93;2.03;;;;;;;;;;5075327;28;20115;-81
2022/12/29 09:39:37;;;;;;;11.43;2.03;;;;;;;;;;5074682;28;20063;-80
2022/12/29 09:42:23;;;;;;;9.05;2.13;;;;;;;;;;5088107;28;20053;-80
2022/12/29 09:44:55;;;;;;;12.82;1.60;;;;;;;;;;5078401;28;20040;-80
2022/12/29 09:47:22;;;;;;;9.68;1.50;;;;;;;;;;5088925;28;20080;-80
2022/12/29 09:49:51;;;;;;;10.82;1.70;;;;;;;;;;5073791;28;20106;-80
2022/12/29 09:52:33;;;;;;;12.18;2.20;;;;;;;;;;5082413;28;20147;-80
2022/12/29 09:55:10;;;;;;;7.70;1.23;;;;;;;;;;5089547;28;20486;-80
2022/12/29 09:57:42;;;;;;;9.90;1.60;;;;;;;;;;5091592;28;20114;-80
2022/12/29 10:00:14;;;;;;;10.43;1.48;;;;;;;;;;5084801;28;20063;-79
2022/12/29 10:02:43;;;;;;;10.68;1.70;;;;;;;;;;5081726;28;20067;-79
2022/12/29 10:05:18;;;;;;;8.07;1.60;;;;;;;;;;5085990;28;20056;-80
2022/12/29 10:08:03;;;;;;;7.60;1.85;;;;;;;;;;5090233;28;20063;-81
2022/12/29 10:10:30;;;;;;;11.95;1.90;;;;;;;;;;5089912;28;20118;-80
2022/12/29 10:13:02;;;;;;;7.78;1.60;;;;;;;;;;5090751;28;20056;-81
2022/12/29 10:15:29;;;;;;;8.43;1.60;;;;;;;;;;5092063;28;20063;-79
2022/12/29 10:18:14;;;;;;;6.97;1.35;;;;;;;;;;5091278;28;20929;-80
2022/12/29 10:20:52;;;;;;;7.40;1.80;;;;;;;;;;5086431;28;20059;-81
2022/12/29 10:23:26;;;;;;;7.38;1.80;;;;;;;;;;5091167;28;20103;-80
2022/12/29 10:25:56;;;;;;;8.18;1.63;;;;;;;;;;5087414;28;20913;-79
2022/12/29 10:28:38;;;;;;;13.98;2.00;;;;;;;;;;5090462;28;20052;-81
2022/12/29 10:31:09;;;;;;;9.35;1.42;;;;;;;;;;5089632;28;20565;-81
2022/12/29 10:33:37;;;;;;;6.22;1.80;;;;;;;;;;5089894;28;20499;-80
2022/12/29 10:36:17;;;;;;;9.40;1.80;;;;;;;;;;5073569;28;20148;-80
2022/12/29 10:38:51;;;;;;;9.52;1.42;;;;;;;;;;5071398;28;20518;-79
2022/12/29 10:41:17;;;;;;;7.72;1.88;;;;;;;;;;5088320;28;20068;-79
2022/12/29 10:43:48;;;;;;;8.85;1.90;;;;;;;;;;5083352;28;20056;-80
2022/12/29 10:46:18;;;;;;;8.32;2.45;;;;;;;;;;5080471;28;20589;-81
2022/12/29 10:48:46;;;;;;;10.10;1.80;;;;;;;;;;5087234;28;20816;-80
2022/12/29 10:51:42;;;;;;;7.70;2.10;;;;;;;;;;5085790;28;20056;-81
2022/12/29 10:54:21;;;;;;;10.85;2.25;;;;;;;;;;5071937;28;20499;-81
2022/12/29 10:56:54;;;;;;;10.48;2.42;;;;;;;;;;5081061;28;20052;-81
2022/12/29 10:59:26;;;;;;;12.30;2.60;;;;;;;;;;5067152;28;20054;-81
2022/12/29 11:02:04;;;;;;;11.38;2.70;;;;;;;;;;5084095;28;20058;-80
2022/12/29 11:04:34;;;;;;;10.98;3.08;;;;;;;;;;5085942;28;20052;-80
2022/12/29 11:07:00;;;;;;;9.43;2.42;;;;;;;;;;5079433;28;21237;-80
2022/12/29 11:09:29;;;;;;;14.05;3.05;;;;;;;;;;5087544;28;20080;-81
2022/12/29 11:12:21;;;;;;;11.90;2.97;;;;;;;;;;5084727;28;20048;-80
2022/12/29 11:15:00;;;;;;;14.38;3.20;;;;;;;;;;5083886;28;20060;-79
2022/12/29 11:17:27;;;;;;;13.40;2.97;;;;;;;;;;5087722;28;20080;-80
2022/12/29 11:19:54;;;;;;;10.48;2.70;;;;;;;;;;5087541;28;20053;-80
2022/12/29 11:22:23;;;;;;;17.15;3.10;;;;;;;;;;5074218;28;20049;-80
2022/12/29 11:24:50;;;;;;;17.02;2.90;;;;;;;;;;5070088;28;20056;-80
2022/12/29 11:27:19;;;;;;;16.38;3.40;;;;;;;;;;5086649;28;20060;-81
2022/12/29 11:29:46;;;;;;;11.63;2.70;;;;;;;;;;5076187;28;20855;-80
2022/12/29 11:32:17;;;;;;;12.73;2.90;;;;;;;;;;5089347;28;20631;-80
2022/12/29 11:34:51;;;;;;;15.50;3.08;;;;;;;;;;5084266;28;20064;-80
2022/12/29 11:37:25;;;;;;;10.90;2.40;;;;;;;;;;5086768;28;20088;-80
2022/12/29 11:39:56;;;;;;;9.43;2.60;;;;;;;;;;5097183;28;20059;-80
2022/12/29 11:42:23;;;;;;;;;;;;;;;;;;5090803;28;20186;-81
2022/12/29 11:44:51;;;;;;;12.38;2.47;;;;;;;;;;5087379;28;47520;-80
2022/12/29 11:47:23;;;;;;;14.07;2.75;;;;;;;;;;5087924;28;20055;-80
2022/12/29 11:49:52;;;;;;;7.78;2.13;;;;;;;;;;5087459;28;20044;-80
2022/12/29 11:52:24;;;;;;;12.40;2.17;;;;;;;;;;5087882;28;20052;-81
2022/12/29 11:54:51;;;;;;;10.13;2.00;;;;;;;;;;5090019;28;20052;-80
2022/12/29 11:57:19;;;;;;;12.93;1.58;;;;;;;;;;5089357;28;20052;-80
2022/12/29 11:59:51;;;;;;;7.97;1.63;;;;;;;;;;5090475;28;20064;-80
2022/12/29 12:02:29;;;;;;;11.48;2.10;;;;;;;;;;5069200;28;20496;-80
2022/12/29 12:05:13;;;;;;;13.15;2.40;;;;;;;;;;5089748;28;20404;-80
2022/12/29 12:07:44;;;;;;;14.73;4.60;;;;;;;;;;5090036;28;20052;-80
2022/12/29 12:10:15;;;;;;;25.80;8.88;;;;;;;;;;5086041;28;20056;-80
2022/12/29 12:12:41;;;;;;;;;;;;;;;;;;5088861;28;20139;-80
2022/12/29 12:15:13;;;;;;;12.25;2.30;;;;;;;;;;5084994;28;40807;-80
2022/12/29 12:17:45;;;;;;;13.18;2.70;;;;;;;;;;5087565;28;20525;-79
2022/12/29 12:20:23;;;;;;;14.05;2.47;;;;;;;;;;5059904;28;20432;-79
2022/12/29 12:22:50;;;;;;;11.60;2.55;;;;;;;;;;5075066;28;20515;-79
2022/12/29 12:25:20;;;;;;;12.98;2.35;;;;;;;;;;5085403;28;20064;-81
2022/12/29 12:27:57;;;;;;;17.80;2.53;;;;;;;;;;5093692;28;20048;-79
2022/12/29 12:30:26;;;;;;;14.85;3.08;;;;;;;;;;5092605;28;20044;-78
2022/12/29 12:32:55;;;;;;;18.20;3.15;;;;;;;;;;5093724;28;20106;-79
2022/12/29 12:35:31;;;;;;;14.77;2.70;;;;;;;;;;5091859;28;20128;-80
2022/12/29 12:38:07;;;;;;;23.10;2.85;;;;;;;;;;5073123;28;20059;-79
2022/12/29 12:40:49;;;;;;;15.45;2.95;;;;;;;;;;5088899;28;20080;-79
2022/12/29 12:43:35;;;;;;;14.52;2.65;;;;;;;;;;5093726;28;20111;-79
2022/12/29 12:46:17;;;;;;;15.35;2.53;;;;;;;;;;5072003;28;20084;-80
2022/12/29 12:48:44;;;;;;;13.38;2.45;;;;;;;;;;5087434;28;20528;-79
2022/12/29 12:51:22;;;;;;;19.48;2.95;;;;;;;;;;5089754;28;20055;-80
2022/12/29 12:54:05;;;;;;;15.30;3.00;;;;;;;;;;5087340;28;20048;-81
2022/12/29 12:57:06;;;;;;;21.92;4.15;;;;;;;;;;5072968;28;20056;-81
2022/12/29 12:59:42;;;;;;;13.90;2.67;;;;;;;;;;5032197;28;20056;-79
2022/12/29 13:02:28;;;;;;;12.10;2.47;;;;;;;;;;5079147;28;20822;-81
2022/12/29 13:05:12;;;;;;;17.90;3.42;;;;;;;;;;5091378;28;20088;-79
2022/12/29 13:07:39;;;;;;;11.77;2.28;;;;;;;;;;5086456;28;20056;-80
2022/12/29 13:10:25;;;;;;;14.20;2.60;;;;;;;;;;5091830;28;20063;-80
2022/12/29 13:13:12;;;;;;;13.95;2.80;;;;;;;;;;5085716;28;20113;-81
2022/12/29 13:15:59;;;;;;;15.35;2.78;;;;;;;;;;5091674;28;20095;-80
2022/12/29 13:18:26;;;;;;;11.82;2.92;;;;;;;;;;5093162;28;20450;-80
2022/12/29 13:20:52;;;;;;;15.60;3.00;;;;;;;;;;5075627;28;20586;-80
2022/12/29 13:23:28;;;;;;;16.75;2.58;;;;;;;;;;5092208;28;20044;-80
2022/12/29 13:26:04;;;;;;;14.00;2.97;;;;;;;;;;5091114;28;20048;-80
2022/12/29 13:28:48;;;;;;;15.73;2.83;;;;;;;;;;5080968;28;20591;-81
2022/12/29 13:31:20;;;;;;;16.52;2.78;;;;;;;;;;5071276;28;20128;-80
2022/12/29 13:33:53;;;;;;;10.95;2.78;;;;;;;;;;5092012;28;20087;-80
2022/12/29 13:36:29;;;;;;;15.70;3.47;;;;;;;;;;5092718;28;20049;-81
2022/12/29 13:42:36;;;;;;;16.10;3.45;;;;;;;;;;4969397;28;20043;-81
2022/12/29 13:54:03;;;;;;;12.68;2.58;;;;;;;;;;5068404;28;20053;-80
2022/12/29 13:56:39;;;;;;;10.00;2.78;;;;;;;;;;5070391;28;20060;-79
2022/12/29 13:59:24;;;;;;;21.38;2.78;;;;;;;;;;5051571;28;20102;-80
2022/12/29 14:01:55;;;;;;;13.35;2.30;;;;;;;;;;5070566;28;20092;-79
2022/12/29 14:04:28;;;;;;;17.55;2.88;;;;;;;;;;5075698;28;20419;-80
2022/12/29 14:07:03;;;;;;;12.88;2.78;;;;;;;;;;5070872;28;20110;-80
2022/12/29 14:09:35;;;;;;;9.13;1.63;;;;;;;;;;5042551;28;20056;-81
2022/12/29 14:12:18;;;;;;;9.98;1.73;;;;;;;;;;5064345;28;20518;-80
2022/12/29 14:14:45;;;;;;;9.27;1.50;;;;;;;;;;5071061;28;20107;-81
2022/12/29 14:17:12;;;;;;;12.48;2.15;;;;;;;;;;5070922;28;20084;-81
2022/12/29 14:19:43;;;;;;;6.18;1.40;;;;;;;;;;5074681;28;20111;-81
2022/12/29 14:22:10;;;;;;;6.80;1.17;;;;;;;;;;5068748;28;20107;-81
2022/12/29 14:24:37;;;;;;;8.02;1.92;;;;;;;;;;5068839;28;20516;-82
2022/12/29 14:27:09;;;;;;;7.80;2.03;;;;;;;;;;5068607;28;20053;-81
2022/12/29 14:29:39;;;;;;;8.88;2.10;;;;;;;;;;5068747;28;20065;-81
2022/12/29 14:32:20;;;;;;;5.85;1.02;;;;;;;;;;5063880;28;20059;-82
2022/12/29 14:34:47;;;;;;;6.00;1.90;;;;;;;;;;5065793;28;20075;-80
2022/12/29 14:37:17;;;;;;;;;;;;;;;;;;5066920;28;20049;-82
2022/12/29 14:39:45;;;;;;;7.22;2.13;;;;;;;;;;5068556;28;47735;-81
2022/12/29 14:42:15;;;;;;;6.10;2.80;;;;;;;;;;5066328;28;20059;-81
2022/12/29 14:44:46;;;;;;;7.93;1.70;;;;;;;;;;5067311;28;20052;-81
2022/12/29 14:47:22;;;;;;;4.68;1.50;;;;;;;;;;5066825;28;20053;-81
2022/12/29 14:49:48;;;;;;;4.97;1.63;;;;;;;;;;5070054;28;20056;-81
2022/12/29 14:52:21;;;;;;;7.47;1.67;;;;;;;;;;5075399;28;20064;-81
2022/12/29 14:54:49;;;;;;;8.32;2.20;;;;;;;;;;5052376;28;20103;-80
2022/12/29 14:57:20;;;;;;;7.70;1.70;;;;;;;;;;5049768;28;20734;-80
2022/12/29 14:59:48;;;;;;;12.52;2.33;;;;;;;;;;5068432;28;20439;-80
2022/12/29 15:02:19;;;;;;;9.10;1.60;;;;;;;;;;5066234;28;20051;-81
2022/12/29 15:04:46;;;;;;;22.98;8.25;;;;;;;;;;5070388;28;20091;-80
2022/12/29 15:07:13;;;;;;;6.30;2.30;;;;;;;;;;5063446;28;20088;-80
2022/12/29 15:09:49;;;;;;;12.18;3.97;;;;;;;;;;5072194;28;20063;-80
2022/12/29 15:12:28;;;;;;;15.43;4.25;;;;;;;;;;5073900;28;20059;-80
2022/12/29 15:14:56;;;;;;;6.97;1.98;;;;;;;;;;5070134;28;20084;-80
2022/12/29 15:17:28;;;;;;;11.25;2.17;;;;;;;;;;5051399;28;20054;-80
2022/12/29 15:19:55;;;;;;;;;;;;;;;;;;5063574;28;20064;-80
2022/12/29 15:22:22;;;;;;;8.68;2.40;;;;;;;;;;5068012;28;46499;-80
2022/12/29 15:24:50;;;;;;;13.80;4.57;;;;;;;;;;5069087;28;20061;-80
2022/12/29 15:27:19;;;;;;;33.17;10.85;;;;;;;;;;5066768;28;21090;-81
2022/12/29 15:29:45;;;;;;;23.55;8.63;;;;;;;;;;5049712;28;20087;-81
2022/12/29 15:32:17;;;;;;;11.90;2.38;;;;;;;;;;5070639;28;20813;-80
2022/12/29 15:34:44;;;;;;;18.33;2.63;;;;;;;;;;5075118;28;20056;-80
2022/12/29 15:37:17;;;;;;;10.20;2.08;;;;;;;;;;5056304;28;20059;-80
2022/12/29 15:39:43;;;;;;;13.52;2.42;;;;;;;;;;5067056;28;20057;-80
2022/12/29 15:42:18;;;;;;;11.35;2.40;;;;;;;;;;5065994;28;20123;-80
2022/12/29 15:44:44;;;;;;;10.75;2.30;;;;;;;;;;5065053;28;20090;-81
2022/12/29 15:47:18;;;;;;;9.52;2.30;;;;;;;;;;5062037;28;20135;-80